createdAt,value
2022-08-05T00:00:16.187Z,25.93
2022-08-05T00:00:48.337Z,25.95
2022-08-05T00:01:20.786Z,26.00
2022-08-05T00:01:48.469Z,26.09
2022-08-05T00:02:16.631Z,25.95
2022-08-05T00:02:51.171Z,25.95
2022-08-05T00:03:17.830Z,25.91
2022-08-05T00:03:48.324Z,25.95
2022-08-05T00:04:19.303Z,26.05
2022-08-05T00:04:55.390Z,25.98
2022-08-05T00:06:02.792Z,26.03
2022-08-05T00:06:05.067Z,25.95
2022-08-05T00:06:32.279Z,25.91
2022-08-05T00:06:54.535Z,26.10
2022-08-05T00:07:59.878Z,26.03
2022-08-05T00:08:00.546Z,26.00
2022-08-05T00:08:35.083Z,25.99
2022-08-05T00:08:57.941Z,25.95
2022-08-05T00:09:27.409Z,26.00
2022-08-05T00:09:58.249Z,26.02
2022-08-05T00:10:29.118Z,26.00
2022-08-05T00:11:00.474Z,26.02
2022-08-05T00:11:35.017Z,25.91
2022-08-05T00:12:02.527Z,25.96
2022-08-05T00:12:32.017Z,25.99
2022-08-05T00:13:02.988Z,26.06
2022-08-05T00:13:39.153Z,26.00
2022-08-05T00:14:12.055Z,25.90
2022-08-05T00:14:36.110Z,25.90
2022-08-05T00:15:54.382Z,25.96
2022-08-05T00:15:58.012Z,25.91
2022-08-05T00:16:08.816Z,25.99
2022-08-05T00:16:52.920Z,25.98
2022-08-05T00:17:19.570Z,26.03
2022-08-05T00:17:41.231Z,26.00
2022-08-05T00:18:21.406Z,26.03
2022-08-05T00:18:42.574Z,26.03
2022-08-05T00:19:12.378Z,25.98
2022-08-05T00:19:45.824Z,25.96
2022-08-05T00:20:15.018Z,25.95
2022-08-05T00:20:45.481Z,25.87
2022-08-05T00:21:15.294Z,25.90
2022-08-05T00:21:45.922Z,25.96
2022-08-05T00:22:17.902Z,25.88
2022-08-05T00:22:59.607Z,25.91
2022-08-05T00:23:44.287Z,25.96
2022-08-05T00:24:05.089Z,25.95
2022-08-05T00:24:24.814Z,25.95
2022-08-05T00:24:55.146Z,25.96
2022-08-05T00:25:22.092Z,25.96
2022-08-05T00:25:53.936Z,26.09
2022-08-05T00:26:23.570Z,25.91
2022-08-05T00:26:54.492Z,25.90
2022-08-05T00:27:28.412Z,25.91
2022-08-05T00:27:57.374Z,25.95
2022-08-05T00:28:29.786Z,25.99
2022-08-05T00:28:57.397Z,25.93
2022-08-05T00:29:32.965Z,25.84
2022-08-05T00:30:00.640Z,25.91
2022-08-05T00:30:32.096Z,25.88
2022-08-05T00:31:02.914Z,25.87
2022-08-05T00:31:41.413Z,25.87
2022-08-05T00:32:12.984Z,25.90
2022-08-05T00:32:34.583Z,25.95
2022-08-05T00:33:03.998Z,25.96
2022-08-05T00:34:53.876Z,25.95
2022-08-05T00:34:54.150Z,25.91
2022-08-05T00:34:56.930Z,25.99
2022-08-05T00:35:08.758Z,25.93
2022-08-05T00:35:38.866Z,25.88
2022-08-05T00:36:16.618Z,25.91
2022-08-05T00:37:10.881Z,25.93
2022-08-05T00:37:14.266Z,25.95
2022-08-05T00:37:53.256Z,25.88
2022-08-05T00:38:13.025Z,26.00
2022-08-05T00:38:43.432Z,25.96
2022-08-05T00:39:14.475Z,25.98
2022-08-05T00:39:57.962Z,25.98
2022-08-05T00:40:17.944Z,25.84
2022-08-05T00:40:51.902Z,25.98
2022-08-05T00:41:19.014Z,25.96
2022-08-05T00:41:55.252Z,25.98
2022-08-05T00:42:31.968Z,25.99
2022-08-05T00:42:51.377Z,25.87
2022-08-05T00:43:20.791Z,25.98
2022-08-05T00:43:51.758Z,25.93
2022-08-05T00:44:23.189Z,25.98
2022-08-05T00:44:54.884Z,25.95
2022-08-05T00:45:28.363Z,25.93
2022-08-05T00:45:56.227Z,25.99
2022-08-05T00:46:42.731Z,26.00
2022-08-05T00:47:01.943Z,25.95
2022-08-05T00:47:31.651Z,25.88
2022-08-05T00:48:05.108Z,26.02
2022-08-05T00:48:31.398Z,25.93
2022-08-05T00:49:00.106Z,25.91
2022-08-05T00:49:32.554Z,25.91
2022-08-05T00:50:01.498Z,25.91
2022-08-05T00:50:32.390Z,25.91
2022-08-05T00:51:08.802Z,26.00
2022-08-05T00:51:50.693Z,25.99
2022-08-05T00:52:05.158Z,25.93
2022-08-05T00:52:36.140Z,25.88
2022-08-05T00:53:16.058Z,25.91
2022-08-05T00:54:01.242Z,26.02
2022-08-05T00:54:08.600Z,25.91
2022-08-05T00:54:39.468Z,25.99
2022-08-05T00:55:10.399Z,25.91
2022-08-05T00:55:42.854Z,25.95
2022-08-05T00:56:12.117Z,25.93
2022-08-05T00:56:51.474Z,25.91
2022-08-05T00:57:14.463Z,25.93
2022-08-05T00:57:58.077Z,25.91
2022-08-05T00:58:14.792Z,25.93
2022-08-05T00:58:45.978Z,25.93
2022-08-05T00:59:16.552Z,25.90
2022-08-05T00:59:47.532Z,25.96
2022-08-05T01:00:19.981Z,25.98
2022-08-05T01:00:50.190Z,25.85
2022-08-05T01:01:42.164Z,25.93
2022-08-05T01:01:52.041Z,25.90
2022-08-05T01:02:21.745Z,25.87
2022-08-05T01:02:52.471Z,25.96
2022-08-05T01:03:23.583Z,25.90
2022-08-05T01:03:54.009Z,25.90
2022-08-05T01:04:26.967Z,25.93
2022-08-05T01:04:56.607Z,25.96
2022-08-05T01:05:27.554Z,25.93
2022-08-05T01:05:56.826Z,25.85
2022-08-05T01:06:32.597Z,25.88
2022-08-05T01:06:59.750Z,25.90
2022-08-05T01:07:31.833Z,25.83
2022-08-05T01:08:41.838Z,25.84
2022-08-05T01:08:43.366Z,25.99
2022-08-05T01:09:03.201Z,25.91
2022-08-05T01:09:32.846Z,25.93
2022-08-05T01:10:03.812Z,25.93
2022-08-05T01:10:34.725Z,25.87
2022-08-05T01:11:05.636Z,25.88
2022-08-05T01:11:37.418Z,25.95
2022-08-05T01:12:17.910Z,25.85
2022-08-05T01:12:39.244Z,25.96
2022-08-05T01:13:13.357Z,25.98
2022-08-05T01:13:58.456Z,25.95
2022-08-05T01:14:15.498Z,25.90
2022-08-05T01:14:41.842Z,25.87
2022-08-05T01:15:35.468Z,25.93
2022-08-05T01:15:48.015Z,25.90
2022-08-05T01:16:14.472Z,25.93
2022-08-05T01:16:46.448Z,25.90
2022-08-05T01:17:15.872Z,25.87
2022-08-05T01:17:46.969Z,25.83
2022-08-05T01:18:18.415Z,25.90
2022-08-05T01:18:53.758Z,25.99
2022-08-05T01:19:20.297Z,25.88
2022-08-05T01:20:01.366Z,25.88
2022-08-05T01:20:22.268Z,25.95
2022-08-05T01:20:52.052Z,25.83
2022-08-05T01:21:23.196Z,25.85
2022-08-05T01:21:54.031Z,26.00
2022-08-05T01:22:24.592Z,25.85
2022-08-05T01:22:57.195Z,25.96
2022-08-05T01:23:26.318Z,25.84
2022-08-05T01:23:58.281Z,25.85
2022-08-05T01:24:30.152Z,25.83
2022-08-05T01:24:59.048Z,25.91
2022-08-05T01:25:40.221Z,25.85
2022-08-05T01:26:00.942Z,25.99
2022-08-05T01:26:31.928Z,25.83
2022-08-05T01:27:17.914Z,25.93
2022-08-05T01:27:34.641Z,25.85
2022-08-05T01:28:04.491Z,25.84
2022-08-05T01:28:35.410Z,25.83
2022-08-05T01:29:06.167Z,25.87
2022-08-05T01:29:36.869Z,25.93
2022-08-05T01:30:17.728Z,25.91
2022-08-05T01:30:39.786Z,25.85
2022-08-05T01:31:10.446Z,25.90
2022-08-05T01:31:42.691Z,25.85
2022-08-05T01:32:12.498Z,25.88
2022-08-05T01:32:42.953Z,25.90
2022-08-05T01:33:12.897Z,26.00
2022-08-05T01:33:49.304Z,25.93
2022-08-05T01:34:15.320Z,25.95
2022-08-05T01:34:44.762Z,25.83
2022-08-05T01:35:51.043Z,25.93
2022-08-05T01:35:51.176Z,25.84
2022-08-05T01:36:17.105Z,25.93
2022-08-05T01:36:47.999Z,25.93
2022-08-05T01:37:24.476Z,25.90
2022-08-05T01:37:49.835Z,25.81
2022-08-05T01:38:27.060Z,25.90
2022-08-05T01:38:52.821Z,25.90
2022-08-05T01:39:46.421Z,25.88
2022-08-05T01:39:54.264Z,25.83
2022-08-05T01:40:29.041Z,25.88
2022-08-05T01:40:54.818Z,25.93
2022-08-05T01:41:25.913Z,25.90
2022-08-05T01:41:56.415Z,25.83
2022-08-05T01:42:27.589Z,25.91
2022-08-05T01:42:58.078Z,25.81
2022-08-05T01:43:28.991Z,25.83
2022-08-05T01:43:59.660Z,25.84
2022-08-05T01:44:35.390Z,25.88
2022-08-05T01:45:02.353Z,25.83
2022-08-05T01:45:34.699Z,25.80
2022-08-05T01:46:07.480Z,25.87
2022-08-05T01:46:42.352Z,25.87
2022-08-05T01:47:06.688Z,25.83
2022-08-05T01:47:39.655Z,25.84
2022-08-05T01:48:10.358Z,25.85
2022-08-05T01:48:37.195Z,25.85
2022-08-05T01:49:23.341Z,25.87
2022-08-05T01:50:02.122Z,25.88
2022-08-05T01:50:15.145Z,25.85
2022-08-05T01:50:41.665Z,25.84
2022-08-05T01:51:13.084Z,25.87
2022-08-05T01:51:42.299Z,25.81
2022-08-05T01:52:17.807Z,25.87
2022-08-05T01:52:44.703Z,25.87
2022-08-05T01:53:15.646Z,25.81
2022-08-05T01:53:57.500Z,25.90
2022-08-05T01:54:17.990Z,25.83
2022-08-05T01:54:47.112Z,25.88
2022-08-05T01:55:18.045Z,25.90
2022-08-05T01:55:49.062Z,25.77
2022-08-05T01:58:10.551Z,25.80
2022-08-05T01:58:11.650Z,25.83
2022-08-05T01:58:12.658Z,25.81
2022-08-05T01:58:18.760Z,25.80
2022-08-05T01:58:40.467Z,25.83
2022-08-05T01:58:53.955Z,25.88
2022-08-05T01:59:26.002Z,25.88
2022-08-05T01:59:55.218Z,25.81
2022-08-05T02:00:30.314Z,25.85
2022-08-05T02:00:57.126Z,25.88
2022-08-05T02:01:27.684Z,25.78
2022-08-05T02:01:58.850Z,25.81
2022-08-05T02:02:28.985Z,25.85
2022-08-05T02:02:59.501Z,25.81
2022-08-05T02:03:32.041Z,25.80
2022-08-05T02:04:00.981Z,25.96
2022-08-05T02:04:31.476Z,25.87
2022-08-05T02:05:03.092Z,25.84
2022-08-05T02:05:34.259Z,25.91
2022-08-05T02:06:33.927Z,25.84
2022-08-05T02:06:38.583Z,25.83
2022-08-05T02:07:06.220Z,25.78
2022-08-05T02:07:35.618Z,25.83
2022-08-05T02:08:06.337Z,25.88
2022-08-05T02:08:44.716Z,25.84
2022-08-05T02:09:09.013Z,25.90
2022-08-05T02:09:38.621Z,25.81
2022-08-05T02:10:09.113Z,25.88
2022-08-05T02:10:40.026Z,25.80
2022-08-05T02:11:11.665Z,25.87
2022-08-05T02:11:42.289Z,25.84
2022-08-05T02:12:13.320Z,25.84
2022-08-05T02:12:42.805Z,25.85
2022-08-05T02:13:16.601Z,25.70
2022-08-05T02:13:53.383Z,25.81
2022-08-05T02:14:17.055Z,25.83
2022-08-05T02:14:47.066Z,25.85
2022-08-05T02:15:19.696Z,25.87
2022-08-05T02:15:47.661Z,25.83
2022-08-05T02:16:18.261Z,25.83
2022-08-05T02:16:52.836Z,25.84
2022-08-05T02:18:28.562Z,25.84
2022-08-05T02:18:28.846Z,25.83
2022-08-05T02:18:33.209Z,25.88
2022-08-05T02:18:52.869Z,25.88
2022-08-05T02:19:22.674Z,25.85
2022-08-05T02:19:53.172Z,25.85
2022-08-05T02:20:24.171Z,25.85
2022-08-05T02:20:54.475Z,25.84
2022-08-05T02:21:25.128Z,25.81
2022-08-05T02:21:56.025Z,25.83
2022-08-05T02:22:27.353Z,25.84
2022-08-05T02:22:57.466Z,25.81
2022-08-05T02:23:28.580Z,25.85
2022-08-05T02:24:00.065Z,25.83
2022-08-05T02:24:29.707Z,25.81
2022-08-05T02:25:00.634Z,25.85
2022-08-05T02:25:33.384Z,25.88
2022-08-05T02:26:02.388Z,25.75
2022-08-05T02:26:32.920Z,25.83
2022-08-05T02:27:10.203Z,25.87
2022-08-05T02:27:59.159Z,25.78
2022-08-05T02:28:08.968Z,25.84
2022-08-05T02:28:38.403Z,25.84
2022-08-05T02:29:07.585Z,25.88
2022-08-05T02:30:00.106Z,25.73
2022-08-05T02:30:09.677Z,25.81
2022-08-05T02:30:54.270Z,25.83
2022-08-05T02:31:14.910Z,25.90
2022-08-05T02:31:41.580Z,25.81
2022-08-05T02:32:12.244Z,25.87
2022-08-05T02:32:44.225Z,25.84
2022-08-05T02:33:13.933Z,25.78
2022-08-05T02:33:44.868Z,25.75
2022-08-05T02:34:15.365Z,25.84
2022-08-05T02:34:46.085Z,25.78
2022-08-05T02:35:18.988Z,25.72
2022-08-05T02:35:55.979Z,25.88
2022-08-05T02:36:19.689Z,25.84
2022-08-05T02:36:49.039Z,25.84
2022-08-05T02:37:19.963Z,25.83
2022-08-05T02:37:54.094Z,25.84
2022-08-05T02:38:21.439Z,25.84
2022-08-05T02:38:52.973Z,25.81
2022-08-05T02:39:23.003Z,25.85
2022-08-05T02:39:53.696Z,25.91
2022-08-05T02:40:24.372Z,25.78
2022-08-05T02:40:55.094Z,25.87
2022-08-05T02:41:28.801Z,25.78
2022-08-05T02:42:01.335Z,25.84
2022-08-05T02:42:31.885Z,25.77
2022-08-05T02:42:59.551Z,25.87
2022-08-05T02:43:29.025Z,25.85
2022-08-05T02:44:02.855Z,25.87
2022-08-05T02:44:31.607Z,25.91
2022-08-05T02:45:01.097Z,25.77
2022-08-05T02:45:52.951Z,25.68
2022-08-05T02:46:03.906Z,25.77
2022-08-05T02:46:33.508Z,25.78
2022-08-05T02:47:04.441Z,25.84
2022-08-05T02:47:58.558Z,25.85
2022-08-05T02:48:12.783Z,25.84
2022-08-05T02:48:37.161Z,25.73
2022-08-05T02:49:11.150Z,25.85
2022-08-05T02:49:40.710Z,25.72
2022-08-05T02:50:09.534Z,25.81
2022-08-05T02:50:43.664Z,25.87
2022-08-05T02:51:11.388Z,25.85
2022-08-05T02:52:02.892Z,25.81
2022-08-05T02:52:29.383Z,25.77
2022-08-05T02:52:44.760Z,25.78
2022-08-05T02:53:19.024Z,25.80
2022-08-05T02:53:46.566Z,25.80
2022-08-05T02:54:34.383Z,25.83
2022-08-05T02:54:50.647Z,25.78
2022-08-05T02:55:52.142Z,25.84
2022-08-05T02:55:54.377Z,25.81
2022-08-05T02:56:20.429Z,25.80
2022-08-05T02:56:49.843Z,25.75
2022-08-05T02:58:10.465Z,25.84
2022-08-05T02:58:20.021Z,25.87
2022-08-05T02:58:26.825Z,25.85
2022-08-05T02:58:53.566Z,25.78
2022-08-05T02:59:26.918Z,25.83
2022-08-05T02:59:54.809Z,25.85
2022-08-05T03:00:26.983Z,25.85
2022-08-05T03:00:56.609Z,25.84
2022-08-05T03:01:27.403Z,25.75
2022-08-05T03:01:58.519Z,25.75
2022-08-05T03:02:28.887Z,25.75
2022-08-05T03:02:59.796Z,25.81
2022-08-05T03:03:34.158Z,25.83
2022-08-05T03:04:11.881Z,25.70
2022-08-05T03:04:32.800Z,25.84
2022-08-05T03:05:03.336Z,25.75
2022-08-05T03:06:54.786Z,25.77
2022-08-05T03:06:55.332Z,25.81
2022-08-05T03:06:55.504Z,25.73
2022-08-05T03:07:08.380Z,25.78
2022-08-05T03:07:59.232Z,25.81
2022-08-05T03:08:09.264Z,25.72
2022-08-05T03:08:42.731Z,25.85
2022-08-05T03:09:10.044Z,25.84
2022-08-05T03:09:43.363Z,25.73
2022-08-05T03:10:13.365Z,25.83
2022-08-05T03:10:42.453Z,25.84
2022-08-05T03:11:54.921Z,25.78
2022-08-05T03:11:55.086Z,25.80
2022-08-05T03:12:16.210Z,25.73
2022-08-05T03:12:45.957Z,25.73
2022-08-05T03:13:17.115Z,25.84
2022-08-05T03:13:51.477Z,25.78
2022-08-05T03:14:18.271Z,25.66
2022-08-05T03:14:49.101Z,25.78
2022-08-05T03:15:20.025Z,25.83
2022-08-05T03:15:50.942Z,25.83
2022-08-05T03:16:21.841Z,25.84
2022-08-05T03:16:53.308Z,25.75
2022-08-05T03:17:23.430Z,25.75
2022-08-05T03:17:55.474Z,25.85
2022-08-05T03:18:30.119Z,25.83
2022-08-05T03:18:56.718Z,25.83
2022-08-05T03:19:33.192Z,25.78
2022-08-05T03:19:58.621Z,25.77
2022-08-05T03:20:27.595Z,25.69
2022-08-05T03:20:58.589Z,25.78
2022-08-05T03:21:29.285Z,25.81
2022-08-05T03:22:01.263Z,25.83
2022-08-05T03:22:31.965Z,25.84
2022-08-05T03:23:01.377Z,25.75
2022-08-05T03:23:32.296Z,25.69
2022-08-05T03:24:02.884Z,25.87
2022-08-05T03:24:34.068Z,25.87
2022-08-05T03:25:31.669Z,25.78
2022-08-05T03:26:04.780Z,25.84
2022-08-05T03:26:32.130Z,25.72
2022-08-05T03:26:38.285Z,25.80
2022-08-05T03:27:08.266Z,25.81
2022-08-05T03:27:58.054Z,25.69
2022-08-05T03:28:26.039Z,25.87
2022-08-05T03:28:41.761Z,25.68
2022-08-05T03:29:12.411Z,25.88
2022-08-05T03:29:45.666Z,25.87
2022-08-05T03:30:13.766Z,25.80
2022-08-05T03:30:43.678Z,25.83
2022-08-05T03:31:18.254Z,25.75
2022-08-05T03:31:55.752Z,25.90
2022-08-05T03:32:17.689Z,25.83
2022-08-05T03:32:47.355Z,25.85
2022-08-05T03:33:18.362Z,25.83
2022-08-05T03:33:52.802Z,25.78
2022-08-05T03:34:20.014Z,25.77
2022-08-05T03:34:51.600Z,25.80
2022-08-05T03:35:21.529Z,25.69
2022-08-05T03:35:52.028Z,25.72
2022-08-05T03:36:30.383Z,25.78
2022-08-05T03:36:54.991Z,25.73
2022-08-05T03:37:24.793Z,25.73
2022-08-05T03:37:55.622Z,25.68
2022-08-05T03:38:33.256Z,25.73
2022-08-05T03:38:58.470Z,25.70
2022-08-05T03:39:28.305Z,25.75
2022-08-05T03:40:01.764Z,25.81
2022-08-05T03:40:32.012Z,25.73
2022-08-05T03:41:00.457Z,25.75
2022-08-05T03:41:33.273Z,25.70
2022-08-05T03:42:02.508Z,25.81
2022-08-05T03:42:41.812Z,25.72
2022-08-05T03:43:58.434Z,25.87
2022-08-05T03:44:09.949Z,25.66
2022-08-05T03:44:11.295Z,25.77
2022-08-05T03:44:37.997Z,25.78
2022-08-05T03:45:22.573Z,25.83
2022-08-05T03:45:57.164Z,25.77
2022-08-05T03:46:10.481Z,25.80
2022-08-05T03:46:40.139Z,25.80
2022-08-05T03:47:10.625Z,25.69
2022-08-05T03:47:41.901Z,25.83
2022-08-05T03:48:12.256Z,25.72
2022-08-05T03:48:42.802Z,25.80
2022-08-05T03:49:14.956Z,25.77
2022-08-05T03:49:51.058Z,25.72
2022-08-05T03:50:16.267Z,25.72
2022-08-05T03:50:45.687Z,25.72
2022-08-05T03:52:36.507Z,25.77
2022-08-05T03:52:37.482Z,25.68
2022-08-05T03:52:38.145Z,25.73
2022-08-05T03:55:49.990Z,25.80
2022-08-05T03:55:50.017Z,25.75
2022-08-05T03:55:51.362Z,25.75
2022-08-05T03:55:53.047Z,25.72
2022-08-05T03:56:05.472Z,25.75
2022-08-05T03:56:05.949Z,25.85
2022-08-05T03:56:11.985Z,25.78
2022-08-05T03:56:33.114Z,25.69
2022-08-05T03:56:58.786Z,25.69
2022-08-05T03:57:35.024Z,25.72
2022-08-05T03:57:58.698Z,25.81
2022-08-05T03:58:29.003Z,25.72
2022-08-05T03:58:59.333Z,25.78
2022-08-05T03:59:46.716Z,25.70
2022-08-05T04:00:02.220Z,25.75
2022-08-05T04:00:31.708Z,25.75
2022-08-05T04:01:03.960Z,25.78
2022-08-05T04:01:33.327Z,25.75
2022-08-05T04:02:03.878Z,25.80
2022-08-05T04:02:38.311Z,25.77
2022-08-05T04:03:05.958Z,25.78
2022-08-05T04:03:35.611Z,25.77
2022-08-05T04:04:09.960Z,25.69
2022-08-05T04:04:36.762Z,25.83
2022-08-05T04:05:09.582Z,25.70
2022-08-05T04:05:38.592Z,25.77
2022-08-05T04:06:08.895Z,25.75
2022-08-05T04:06:48.000Z,25.73
2022-08-05T04:07:11.552Z,25.78
2022-08-05T04:07:51.450Z,25.72
2022-08-05T04:08:14.340Z,25.72
2022-08-05T04:08:43.717Z,25.70
2022-08-05T04:09:13.521Z,25.75
2022-08-05T04:09:53.698Z,25.68
2022-08-05T04:10:15.425Z,25.69
2022-08-05T04:10:46.265Z,25.72
2022-08-05T04:11:17.037Z,25.69
2022-08-05T04:11:52.524Z,25.81
2022-08-05T04:12:24.500Z,25.81
2022-08-05T04:12:50.426Z,25.68
2022-08-05T04:13:20.347Z,25.80
2022-08-05T04:13:53.438Z,25.68
2022-08-05T04:14:30.147Z,25.72
2022-08-05T04:14:52.893Z,25.83
2022-08-05T04:15:24.866Z,25.69
2022-08-05T04:16:04.506Z,25.65
2022-08-05T04:16:32.696Z,25.65
2022-08-05T04:16:56.247Z,25.69
2022-08-05T04:17:55.705Z,25.69
2022-08-05T04:18:00.082Z,25.78
2022-08-05T04:18:28.921Z,25.75
2022-08-05T04:19:00.029Z,25.75
2022-08-05T04:19:30.383Z,25.68
2022-08-05T04:20:01.039Z,25.70
2022-08-05T04:20:31.695Z,25.77
2022-08-05T04:21:02.168Z,25.77
2022-08-05T04:22:09.302Z,25.69
2022-08-05T04:22:09.623Z,25.72
2022-08-05T04:22:34.556Z,25.75
2022-08-05T04:23:05.169Z,25.77
2022-08-05T04:23:57.189Z,25.80
2022-08-05T04:24:08.889Z,25.78
2022-08-05T04:24:37.471Z,25.83
2022-08-05T04:25:09.383Z,25.84
2022-08-05T04:26:00.574Z,25.75
2022-08-05T04:26:09.980Z,25.77
2022-08-05T04:26:40.605Z,25.72
2022-08-05T04:27:11.556Z,25.75
2022-08-05T04:27:43.866Z,25.78
2022-08-05T04:28:14.377Z,25.80
2022-08-05T04:28:51.161Z,25.73
2022-08-05T04:29:15.775Z,25.78
2022-08-05T04:29:45.712Z,25.65
2022-08-05T04:30:16.295Z,25.66
2022-08-05T04:30:47.162Z,25.73
2022-08-05T04:31:18.291Z,25.70
2022-08-05T04:31:48.669Z,25.77
2022-08-05T04:32:19.192Z,25.69
2022-08-05T04:32:51.100Z,25.69
2022-08-05T04:34:17.712Z,25.68
2022-08-05T04:34:19.200Z,25.68
2022-08-05T04:34:33.001Z,25.70
2022-08-05T04:34:57.517Z,25.58
2022-08-05T04:35:24.235Z,25.68
2022-08-05T04:36:11.127Z,25.75
2022-08-05T04:36:38.550Z,25.78
2022-08-05T04:36:56.640Z,25.72
2022-08-05T04:38:01.349Z,25.72
2022-08-05T04:38:02.738Z,25.69
2022-08-05T04:38:39.879Z,25.72
2022-08-05T04:39:00.920Z,25.75
2022-08-05T04:39:30.479Z,25.72
2022-08-05T04:40:00.952Z,25.69
2022-08-05T04:40:31.538Z,25.77
2022-08-05T04:41:03.484Z,25.72
2022-08-05T04:41:37.204Z,25.75
2022-08-05T04:42:05.020Z,25.66
2022-08-05T04:42:34.889Z,25.77
2022-08-05T04:43:05.824Z,25.70
2022-08-05T04:43:37.062Z,25.69
2022-08-05T04:44:09.206Z,25.75
2022-08-05T04:44:38.573Z,25.75
2022-08-05T04:45:09.247Z,25.72
2022-08-05T04:45:48.035Z,25.81
2022-08-05T04:46:10.728Z,25.77
2022-08-05T04:46:41.233Z,25.77
2022-08-05T04:47:17.009Z,25.70
2022-08-05T04:47:43.004Z,25.70
2022-08-05T04:48:16.465Z,25.70
2022-08-05T04:48:45.790Z,25.78
2022-08-05T04:49:15.659Z,25.69
2022-08-05T04:50:02.721Z,25.75
2022-08-05T04:50:37.693Z,25.70
2022-08-05T04:51:03.116Z,25.75
2022-08-05T04:51:18.972Z,25.66
2022-08-05T04:51:50.036Z,25.85
2022-08-05T04:52:21.457Z,25.83
2022-08-05T04:52:51.388Z,25.70
2022-08-05T04:53:22.251Z,25.77
2022-08-05T04:53:53.112Z,25.83
2022-08-05T04:54:24.153Z,25.75
2022-08-05T04:54:54.471Z,25.75
2022-08-05T04:56:15.263Z,25.80
2022-08-05T04:56:34.017Z,25.81
2022-08-05T04:56:34.768Z,25.80
2022-08-05T04:56:59.132Z,25.70
2022-08-05T04:57:29.621Z,25.75
2022-08-05T04:58:00.550Z,25.75
2022-08-05T04:58:30.413Z,25.73
2022-08-05T04:59:01.280Z,25.68
2022-08-05T04:59:38.424Z,25.78
2022-08-05T05:00:04.112Z,25.73
2022-08-05T05:00:34.017Z,25.75
2022-08-05T05:01:04.918Z,25.70
2022-08-05T05:02:07.481Z,25.84
2022-08-05T05:02:36.305Z,25.72
2022-08-05T05:02:43.347Z,25.73
2022-08-05T05:03:09.200Z,25.81
2022-08-05T05:03:42.088Z,25.87
2022-08-05T05:04:09.411Z,25.73
2022-08-05T05:04:47.521Z,25.72
2022-08-05T05:05:26.095Z,25.81
2022-08-05T05:06:39.941Z,25.77
2022-08-05T05:06:40.240Z,25.70
2022-08-05T05:06:51.972Z,25.84
2022-08-05T05:07:15.834Z,25.81
2022-08-05T05:07:45.770Z,25.87
2022-08-05T05:08:30.057Z,25.78
2022-08-05T05:08:50.163Z,25.78
2022-08-05T05:09:17.720Z,25.81
2022-08-05T05:09:47.554Z,25.80
2022-08-05T05:10:18.494Z,25.77
2022-08-05T05:10:55.787Z,25.78
2022-08-05T05:11:21.340Z,25.80
2022-08-05T05:11:53.972Z,25.85
2022-08-05T05:12:22.179Z,25.81
2022-08-05T05:12:52.665Z,25.75
2022-08-05T05:13:23.543Z,25.78
2022-08-05T05:13:55.355Z,25.77
2022-08-05T05:14:28.036Z,25.77
2022-08-05T05:14:57.275Z,25.78
2022-08-05T05:15:56.252Z,25.83
2022-08-05T05:16:05.902Z,25.75
2022-08-05T05:16:30.367Z,25.81
2022-08-05T05:16:59.567Z,25.78
2022-08-05T05:17:56.791Z,25.78
2022-08-05T05:18:02.429Z,25.83
2022-08-05T05:18:34.124Z,25.83
2022-08-05T05:19:18.882Z,25.78
2022-08-05T05:19:37.289Z,25.80
2022-08-05T05:20:05.441Z,25.80
2022-08-05T05:20:35.384Z,25.91
2022-08-05T05:21:06.495Z,25.80
2022-08-05T05:21:36.931Z,25.81
2022-08-05T05:22:22.858Z,25.73
2022-08-05T05:22:40.899Z,25.80
2022-08-05T05:23:19.430Z,25.75
2022-08-05T05:24:03.820Z,25.83
2022-08-05T05:24:10.753Z,25.77
2022-08-05T05:24:57.548Z,25.75
2022-08-05T05:25:16.630Z,25.80
2022-08-05T05:25:43.266Z,25.84
2022-08-05T05:26:13.994Z,25.83
2022-08-05T05:26:46.439Z,25.84
2022-08-05T05:27:15.271Z,25.83
2022-08-05T05:27:48.645Z,25.90
2022-08-05T05:28:17.620Z,25.87
2022-08-05T05:28:47.561Z,25.73
2022-08-05T05:29:18.437Z,25.84
2022-08-05T05:30:04.380Z,25.85
2022-08-05T05:30:30.410Z,25.83
2022-08-05T05:30:51.732Z,25.84
2022-08-05T05:31:21.628Z,25.80
2022-08-05T05:31:52.281Z,25.81
2022-08-05T05:32:23.230Z,25.88
2022-08-05T05:32:54.253Z,25.84
2022-08-05T05:33:24.737Z,25.77
2022-08-05T05:33:59.806Z,25.87
2022-08-05T05:34:26.790Z,25.83
2022-08-05T05:34:56.781Z,25.87
2022-08-05T05:35:27.983Z,25.84
2022-08-05T05:35:58.708Z,25.85
2022-08-05T05:36:30.074Z,25.73
2022-08-05T05:37:00.571Z,25.81
2022-08-05T05:37:45.503Z,25.77
2022-08-05T05:38:03.478Z,25.66
2022-08-05T05:38:33.122Z,25.65
2022-08-05T05:39:04.331Z,25.69
2022-08-05T05:39:36.185Z,25.72
2022-08-05T05:40:05.218Z,25.55
2022-08-05T05:40:36.219Z,25.51
2022-08-05T05:41:07.633Z,25.55
2022-08-05T05:41:40.825Z,25.60
2022-08-05T05:42:07.766Z,25.54
2022-08-05T05:42:38.691Z,25.54
2022-08-05T05:43:09.658Z,25.50
2022-08-05T05:43:58.251Z,25.44
2022-08-05T05:44:36.079Z,25.43
2022-08-05T05:44:44.371Z,25.44
2022-08-05T05:45:14.187Z,25.38
2022-08-05T05:45:48.372Z,25.38
2022-08-05T05:46:17.333Z,25.31
2022-08-05T05:46:46.300Z,25.33
2022-08-05T05:47:21.865Z,25.26
2022-08-05T05:48:07.110Z,25.25
2022-08-05T05:48:18.535Z,25.29
2022-08-05T05:48:50.465Z,25.23
2022-08-05T05:49:22.578Z,25.07
2022-08-05T05:49:56.441Z,25.26
2022-08-05T05:50:21.726Z,25.13
2022-08-05T05:50:52.410Z,25.22
2022-08-05T05:51:22.869Z,25.14
2022-08-05T05:51:53.791Z,25.18
2022-08-05T05:52:28.414Z,25.14
2022-08-05T05:52:55.264Z,25.14
2022-08-05T05:53:25.942Z,25.10
2022-08-05T05:53:58.696Z,25.17
2022-08-05T05:54:50.404Z,25.13
2022-08-05T05:54:57.963Z,25.11
2022-08-05T05:55:52.293Z,25.11
2022-08-05T05:56:03.141Z,25.13
2022-08-05T05:56:33.161Z,25.26
2022-08-05T05:57:00.955Z,25.16
2022-08-05T05:57:42.641Z,25.17
2022-08-05T05:58:02.781Z,25.23
2022-08-05T05:58:33.946Z,25.23
2022-08-05T05:59:06.201Z,25.22
2022-08-05T05:59:40.391Z,25.18
2022-08-05T06:00:07.003Z,25.25
2022-08-05T06:00:37.141Z,25.18
2022-08-05T06:01:12.840Z,25.23
2022-08-05T06:01:39.474Z,25.29
2022-08-05T06:02:09.098Z,25.16
2022-08-05T06:02:40.055Z,25.33
2022-08-05T06:03:39.695Z,25.35
2022-08-05T06:04:01.078Z,25.25
2022-08-05T06:04:13.074Z,25.28
2022-08-05T06:04:43.139Z,25.36
2022-08-05T06:05:16.585Z,25.35
2022-08-05T06:05:44.830Z,25.38
2022-08-05T06:06:15.673Z,25.35
2022-08-05T06:06:48.828Z,25.43
2022-08-05T06:07:17.113Z,25.38
2022-08-05T06:08:01.327Z,25.48
2022-08-05T06:08:32.397Z,25.36
2022-08-05T06:08:50.821Z,25.31
2022-08-05T06:09:25.669Z,25.43
2022-08-05T06:10:01.397Z,25.54
2022-08-05T06:10:23.791Z,25.50
2022-08-05T06:10:53.004Z,25.44
2022-08-05T06:11:23.583Z,25.47
2022-08-05T06:12:01.658Z,25.50
2022-08-05T06:12:27.158Z,25.46
2022-08-05T06:12:55.872Z,25.51
2022-08-05T06:13:26.815Z,25.48
2022-08-05T06:13:57.459Z,25.43
2022-08-05T06:14:28.867Z,25.65
2022-08-05T06:14:58.721Z,25.59
2022-08-05T06:16:27.395Z,25.44
2022-08-05T06:16:31.676Z,25.54
2022-08-05T06:16:36.894Z,25.50
2022-08-05T06:17:22.097Z,25.47
2022-08-05T06:17:52.821Z,25.47
2022-08-05T06:18:04.027Z,25.46
2022-08-05T06:18:39.393Z,25.51
2022-08-05T06:19:07.484Z,25.54
2022-08-05T06:19:36.409Z,25.54
2022-08-05T06:20:07.374Z,25.59
2022-08-05T06:20:39.329Z,25.47
2022-08-05T06:21:16.805Z,25.51
2022-08-05T06:21:42.894Z,25.51
2022-08-05T06:22:11.556Z,25.50
2022-08-05T06:22:41.555Z,25.59
2022-08-05T06:23:12.389Z,25.53
2022-08-05T06:23:44.411Z,25.63
2022-08-05T06:24:14.735Z,25.47
2022-08-05T06:24:48.100Z,25.51
2022-08-05T06:25:59.468Z,25.58
2022-08-05T06:26:12.355Z,25.58
2022-08-05T06:26:21.577Z,25.50
2022-08-05T06:26:52.225Z,25.59
2022-08-05T06:28:11.727Z,25.62
2022-08-05T06:28:12.714Z,25.58
2022-08-05T06:28:21.938Z,25.60
2022-08-05T06:28:50.826Z,25.55
2022-08-05T06:29:46.576Z,25.55
2022-08-05T06:30:05.920Z,25.62
2022-08-05T06:30:22.643Z,25.69
2022-08-05T06:30:53.445Z,25.65
2022-08-05T06:31:30.498Z,25.68
2022-08-05T06:31:55.034Z,25.58
2022-08-05T06:32:29.156Z,25.72
2022-08-05T06:32:56.088Z,25.69
2022-08-05T06:33:33.389Z,25.69
2022-08-05T06:34:07.386Z,25.77
2022-08-05T06:34:28.754Z,25.72
2022-08-05T06:34:59.721Z,25.68
2022-08-05T06:36:07.489Z,25.81
2022-08-05T06:36:08.210Z,25.73
2022-08-05T06:36:55.324Z,25.83